Time;durP1;ratioP1;P1;durP2;ratioP2;P2;SDS_P1;SDS_P2;PMS_P1;PMS_P2;Temp;Humidity;BMP_temperature;BMP_pressure;BME280_temperature;BME280_humidity;BME280_pressure;Samples;Min_cycle;Max_cycle;Signal;HPM_P1;HPM_P2
2021/08/31 00:01:37;;;;;;;0.70;0.67;;;;;;;13.28;100.00;-15810.41;5034366;28;20454;-71
2021/08/31 00:04:04;;;;;;;0.70;0.70;;;;;;;13.30;100.00;-16075.22;5052998;28;20815;-71
2021/08/31 00:06:31;;;;;;;1.00;0.90;;;;;;;13.29;100.00;-16299.31;5041414;28;20435;-71
2021/08/31 00:08:58;;;;;;;0.70;0.70;;;;;;;13.32;100.00;-16450.84;5045183;28;20514;-71
2021/08/31 00:11:25;;;;;;;0.70;0.63;;;;;;;13.24;100.00;-16555.13;5052838;28;20936;-71
2021/08/31 00:13:52;;;;;;;0.70;0.70;;;;;;;13.22;100.00;-16705.91;5055559;28;20429;-71
2021/08/31 00:16:21;;;;;;;0.70;0.70;;;;;;;13.19;100.00;-16868.88;5055728;28;20503;-71
2021/08/31 00:18:48;;;;;;;0.70;0.60;;;;;;;13.15;100.00;-16996.44;5057400;28;21009;-71
2021/08/31 00:21:15;;;;;;;0.70;0.70;;;;;;;13.14;100.00;-17232.91;5056539;28;20459;-71
2021/08/31 00:23:41;;;;;;;0.70;0.70;;;;;;;13.14;100.00;-17416.69;5055099;28;20487;-71
2021/08/31 00:26:08;;;;;;;0.70;0.60;;;;;;;13.17;100.00;-17555.78;5054099;28;20433;-72
2021/08/31 00:28:35;;;;;;;4.37;0.97;;;;;;;13.18;100.00;-17734.75;5054852;28;20435;-71
2021/08/31 00:31:02;;;;;;;0.70;0.70;;;;;;;13.11;100.00;-17917.03;5055049;28;20812;-72
2021/08/31 00:33:32;;;;;;;0.70;0.60;;;;;;;13.11;100.00;-18040.25;5056545;28;20981;-72
2021/08/31 00:36:03;;;;;;;0.80;0.80;;;;;;;13.12;100.00;-18148.69;5055168;28;20527;-71
2021/08/31 00:38:31;;;;;;;0.93;0.93;;;;;;;13.07;100.00;-18404.34;5056474;28;20450;-71
2021/08/31 00:40:58;;;;;;;0.70;0.63;;;;;;;12.98;100.00;-18621.25;5055361;28;20438;-72
2021/08/31 00:43:26;;;;;;;0.97;0.97;;;;;;;12.98;100.00;-18666.44;5038369;28;21005;-71
2021/08/31 00:45:54;;;;;;;0.70;0.70;;;;;;;12.93;100.00;-18758.44;5056451;28;20431;-71
2021/08/31 00:48:22;;;;;;;0.70;0.70;;;;;;;12.90;100.00;-18850.78;5055916;28;20438;-72
2021/08/31 00:50:51;;;;;;;0.70;0.70;;;;;;;12.88;100.00;-18898.09;5038155;28;20527;-71
2021/08/31 00:53:19;;;;;;;0.77;0.77;;;;;;;12.88;100.00;-19003.75;5054981;28;20480;-71
2021/08/31 00:55:47;;;;;;;0.70;0.70;;;;;;;12.90;100.00;-19119.81;5055886;28;20515;-71
2021/08/31 00:58:15;;;;;;;0.70;0.70;;;;;;;12.89;100.00;-19293.22;5055550;28;20871;-71
2021/08/31 01:00:42;;;;;;;0.73;0.70;;;;;;;12.87;100.00;-19481.34;5054413;28;20446;-71
2021/08/31 01:03:30;;;;;;;0.70;0.70;;;;;;;12.92;100.00;-19668.69;5054857;28;20446;-71
2021/08/31 01:06:01;;;;;;;0.70;0.70;;;;;;;12.86;100.00;-19782.84;5054583;28;20459;-71
2021/08/31 01:08:29;;;;;;;0.80;0.80;;;;;;;12.85;100.00;-19915.84;5054625;28;20451;-72
2021/08/31 01:10:59;;;;;;;0.70;0.60;;;;;;;12.90;100.00;-19974.97;5055305;28;20519;-71
2021/08/31 01:13:28;;;;;;;0.80;0.80;;;;;;;12.87;100.00;-20125.03;5037663;28;20531;-71
2021/08/31 01:15:55;;;;;;;0.70;0.70;;;;;;;12.91;100.00;-20151.22;5037973;28;20530;-71
2021/08/31 01:18:23;;;;;;;0.70;0.67;;;;;;;12.88;100.00;-20245.97;5054224;28;20436;-71
2021/08/31 01:20:52;;;;;;;0.70;0.70;;;;;;;12.85;100.00;-20358.31;5054302;28;20515;-71
2021/08/31 01:23:21;;;;;;;0.80;0.70;;;;;;;12.92;100.00;-20382.69;5069925;28;20475;-70
2021/08/31 01:25:51;;;;;;;0.70;0.67;;;;;;;12.86;100.00;-20527.03;5055075;28;20489;-72
2021/08/31 01:28:21;;;;;;;0.77;0.77;;;;;;;12.80;100.00;-20598.31;5052443;28;20546;-71
2021/08/31 01:30:51;;;;;;;0.70;0.60;;;;;;;12.77;100.00;-20675.56;5054294;28;20854;-71
2021/08/31 01:33:20;;;;;;;0.70;0.60;;;;;;;12.70;100.00;-20748.94;5053698;28;20505;-70
2021/08/31 01:35:47;;;;;;;0.70;0.70;;;;;;;12.68;100.00;-20763.47;5055399;28;20438;-70
2021/08/31 01:38:15;;;;;;;0.70;0.60;;;;;;;12.70;100.00;-20809.25;5054982;28;20462;-71
2021/08/31 01:40:46;;;;;;;0.70;0.60;;;;;;;12.68;100.00;-20889.09;5055239;28;20415;-71
2021/08/31 01:43:21;;;;;;;1.47;1.23;;;;;;;12.75;100.00;-20938.78;5053151;28;20820;-71
2021/08/31 01:46:13;;;;;;;0.70;0.60;;;;;;;12.76;100.00;-21028.88;5054976;28;20418;-71
2021/08/31 01:49:03;;;;;;;0.70;0.60;;;;;;;12.77;100.00;-21029.31;5054873;28;20470;-70
2021/08/31 01:51:30;;;;;;;0.70;0.60;;;;;;;12.78;100.00;-21029.44;5053864;28;20497;-70
2021/08/31 01:53:58;;;;;;;0.70;0.70;;;;;;;12.77;100.00;-21029.31;5037305;28;20479;-71
2021/08/31 01:56:26;;;;;;;1.43;1.33;;;;;;;12.74;100.00;-21028.34;5037395;28;20424;-68
2021/08/31 01:58:54;;;;;;;0.73;0.70;;;;;;;12.80;100.00;-21030.13;5053064;28;20494;-71
2021/08/31 02:01:22;;;;;;;0.70;0.70;;;;;;;12.84;100.00;-21031.09;5087162;28;20467;-71
2021/08/31 02:03:52;;;;;;;1.00;0.90;;;;;;;12.82;100.00;-21030.69;5054990;28;20430;-70
2021/08/31 02:06:20;;;;;;;0.70;0.70;;;;;;;12.81;100.00;-21030.28;5054926;28;20433;-71
2021/08/31 02:09:08;;;;;;;0.70;0.60;;;;;;;12.81;100.00;-21030.28;5079362;28;20467;-71
2021/08/31 02:11:35;;;;;;;0.70;0.67;;;;;;;12.77;100.00;-21029.16;5081502;28;20443;-71
2021/08/31 02:14:04;;;;;;;0.70;0.67;;;;;;;12.74;100.00;-21028.34;5053195;28;20799;-72
2021/08/31 02:16:33;;;;;;;1.00;0.87;;;;;;;12.74;100.00;-21028.34;5055036;28;20491;-70
2021/08/31 02:19:00;;;;;;;0.70;0.60;;;;;;;12.75;100.00;-21028.63;5052655;28;20931;-71
2021/08/31 02:21:27;;;;;;;0.90;0.90;;;;;;;12.70;100.00;-21027.22;5054421;28;20462;-71
2021/08/31 02:23:54;;;;;;;0.70;0.70;;;;;;;12.72;100.00;-21027.78;5034759;28;20521;-70
2021/08/31 02:26:21;;;;;;;0.70;0.70;;;;;;;12.65;100.00;-21025.84;5054108;28;20452;-71
2021/08/31 02:28:48;;;;;;;0.70;0.70;;;;;;;12.60;100.00;-21024.63;5053529;28;20449;-71
2021/08/31 02:31:16;;;;;;;0.70;0.60;;;;;;;12.66;100.00;-21026.13;5086825;28;20444;-70
2021/08/31 02:33:43;;;;;;;0.70;0.60;;;;;;;12.68;100.00;-21026.69;5053125;28;20473;-71
2021/08/31 02:36:11;;;;;;;0.80;0.80;;;;;;;12.79;100.00;-21029.72;5052280;28;20450;-71
2021/08/31 02:38:38;;;;;;;0.73;0.73;;;;;;;12.76;100.00;-21029.03;5053813;28;20568;-70
2021/08/31 02:41:07;;;;;;;0.70;0.70;;;;;;;12.74;100.00;-21028.34;5053869;28;20442;-70
2021/08/31 02:43:34;;;;;;;0.70;0.70;;;;;;;12.75;100.00;-21028.63;5052492;28;20968;-70
2021/08/31 02:46:01;;;;;;;0.70;0.70;;;;;;;12.73;100.00;-21028.06;5054387;28;20432;-70
2021/08/31 02:48:29;;;;;;;0.70;0.60;;;;;;;12.74;100.00;-21028.34;5053249;28;20432;-71
2021/08/31 02:50:56;;;;;;;0.70;0.70;;;;;;;12.78;100.00;-21029.44;5053937;28;20921;-70
2021/08/31 02:53:28;;;;;;;0.70;0.70;;;;;;;12.77;100.00;-21029.16;5086258;28;20884;-70
2021/08/31 02:55:55;;;;;;;0.70;0.67;;;;;;;12.82;100.00;-21030.53;5053859;28;20528;-70
2021/08/31 02:58:22;;;;;;;0.80;0.80;;;;;;;12.88;100.00;-21032.19;5053022;28;20449;-71
2021/08/31 03:01:07;;;;;;;0.70;0.60;;;;;;;12.86;100.00;-21031.66;5033894;28;20519;-70
2021/08/31 03:03:35;;;;;;;0.70;0.60;;;;;;;12.97;100.00;-21034.69;5052900;28;20502;-70
2021/08/31 03:06:02;;;;;;;1.97;1.20;;;;;;;13.06;100.00;-21037.03;5052682;28;20475;-71
2021/08/31 03:08:30;;;;;;;0.70;0.60;;;;;;;13.06;100.00;-21037.16;5053407;28;20444;-70
2021/08/31 03:10:56;;;;;;;0.70;0.70;;;;;;;13.01;100.00;-21035.78;5052404;28;20438;-71
2021/08/31 03:13:24;;;;;;;0.70;0.70;;;;;;;12.94;100.00;-21033.84;5053168;28;20530;-70
2021/08/31 03:15:55;;;;;;;0.70;0.70;;;;;;;12.92;100.00;-21033.16;5053612;28;20416;-70
2021/08/31 03:18:21;;;;;;;0.70;0.60;;;;;;;12.94;100.00;-21033.84;5053456;28;20412;-71
2021/08/31 03:20:51;;;;;;;0.70;0.60;;;;;;;13.04;100.00;-21036.63;5052979;28;20444;-70
2021/08/31 03:23:18;;;;;;;0.70;0.60;;;;;;;13.15;100.00;-21039.50;5053733;28;20990;-70
2021/08/31 03:25:45;;;;;;;0.70;0.70;;;;;;;13.19;100.00;-21040.47;5053329;28;20448;-70
2021/08/31 03:28:13;;;;;;;0.80;0.80;;;;;;;13.19;100.00;-21040.47;5049810;28;20448;-71
2021/08/31 03:30:40;;;;;;;0.70;0.60;;;;;;;13.25;100.00;-21042.28;5054736;28;20786;-70
2021/08/31 03:33:09;;;;;;;0.70;0.60;;;;;;;13.22;100.00;-21041.31;5052446;28;20460;-70
2021/08/31 03:35:37;;;;;;;0.70;0.60;;;;;;;13.25;100.00;-21042.13;5050270;28;20441;-70
2021/08/31 03:38:06;;;;;;;0.70;0.60;;;;;;;13.19;100.00;-21040.47;5033431;28;20532;-71
2021/08/31 03:40:32;;;;;;;0.70;0.70;;;;;;;13.26;100.00;-21042.41;5032307;28;20426;-70
2021/08/31 03:43:00;;;;;;;1.20;1.10;;;;;;;13.27;100.00;-21042.69;5070058;28;20957;-70
2021/08/31 03:45:27;;;;;;;0.70;0.60;;;;;;;13.31;100.00;-21043.78;5039172;28;20439;-70
2021/08/31 03:47:54;;;;;;;0.70;0.60;;;;;;;13.38;100.00;-21045.72;5057016;28;20762;-70
2021/08/31 03:50:21;;;;;;;0.70;0.60;;;;;;;13.35;100.00;-21044.75;5056181;28;20444;-70
2021/08/31 03:52:48;;;;;;;0.80;0.70;;;;;;;13.29;100.00;-21043.25;5055799;28;20448;-70
2021/08/31 03:55:17;;;;;;;0.70;0.60;;;;;;;13.31;100.00;-21043.78;5056909;28;20474;-69
2021/08/31 03:57:44;;;;;;;0.70;0.60;;;;;;;13.22;100.00;-21041.44;5056449;28;20424;-70
2021/08/31 04:00:12;;;;;;;0.70;0.60;;;;;;;13.12;100.00;-21038.53;5089344;28;20443;-70
2021/08/31 04:02:39;;;;;;;0.70;0.70;;;;;;;13.11;100.00;-21038.41;5056991;28;20493;-70
2021/08/31 04:05:08;;;;;;;0.80;0.80;;;;;;;13.02;100.00;-21035.94;5055348;28;20439;-72
2021/08/31 04:07:35;;;;;;;0.70;0.70;;;;;;;13.10;100.00;-21038.00;5055104;28;20431;-71
2021/08/31 04:10:03;;;;;;;0.70;0.60;;;;;;;13.12;100.00;-21038.69;5053799;28;20512;-71
2021/08/31 04:12:32;;;;;;;0.70;0.60;;;;;;;13.06;100.00;-21037.16;5053684;28;20447;-71
2021/08/31 04:14:59;;;;;;;0.73;0.70;;;;;;;13.04;100.00;-21036.47;5053600;28;20560;-71
2021/08/31 04:17:27;;;;;;;0.70;0.63;;;;;;;13.12;100.00;-21038.53;5054575;28;20441;-71
2021/08/31 04:19:54;;;;;;;0.70;0.70;;;;;;;13.16;100.00;-21039.66;5052162;28;20465;-71
2021/08/31 04:22:23;;;;;;;2.47;1.00;;;;;;;13.21;100.00;-21041.03;5054757;28;20486;-71
2021/08/31 04:24:50;;;;;;;1.00;1.00;;;;;;;13.31;100.00;-21043.78;5055015;28;20484;-70
2021/08/31 04:27:18;;;;;;;0.70;0.63;;;;;;;13.39;100.00;-21046.00;5037794;28;20429;-70
2021/08/31 04:29:46;;;;;;;0.70;0.70;;;;;;;13.45;100.00;-21047.66;5055298;28;20526;-70
2021/08/31 04:32:18;;;;;;;0.70;0.70;;;;;;;13.47;100.00;-21048.19;5037751;28;20463;-70
2021/08/31 04:34:47;;;;;;;0.70;0.60;;;;;;;13.51;100.00;-21049.31;5056271;28;20462;-70
2021/08/31 04:37:14;;;;;;;0.70;0.63;;;;;;;13.57;100.00;-21050.69;5055267;28;20429;-70
2021/08/31 04:39:41;;;;;;;0.70;0.70;;;;;;;13.67;100.00;-21053.44;5056347;28;20507;-70
2021/08/31 04:42:09;;;;;;;0.70;0.70;;;;;;;13.72;100.00;-21054.94;5054823;28;20422;-70
2021/08/31 04:44:35;;;;;;;0.80;0.80;;;;;;;13.80;100.00;-21057.03;5056624;28;20430;-71
2021/08/31 04:47:05;;;;;;;0.77;0.77;;;;;;;13.82;100.00;-21057.44;5055873;28;20434;-71
2021/08/31 04:49:32;;;;;;;0.70;0.70;;;;;;;13.78;100.00;-21056.47;5056338;28;20797;-70
2021/08/31 04:52:00;;;;;;;0.80;0.80;;;;;;;13.77;100.00;-21056.19;5054549;28;20847;-70
2021/08/31 04:54:27;;;;;;;0.60;0.60;;;;;;;13.77;100.00;-21056.34;5056173;28;20985;-71
2021/08/31 04:56:54;;;;;;;1.03;0.97;;;;;;;13.76;100.00;-21056.06;5054648;28;20769;-70
2021/08/31 04:59:22;;;;;;;0.70;0.70;;;;;;;13.80;100.00;-21057.03;5053517;28;20439;-70
2021/08/31 05:01:48;;;;;;;0.70;0.60;;;;;;;13.88;100.00;-21059.09;5037982;28;20535;-71
2021/08/31 05:04:18;;;;;;;0.70;0.70;;;;;;;13.92;100.00;-21060.31;5056129;28;20467;-71
2021/08/31 05:06:46;;;;;;;1.50;1.20;;;;;;;13.96;100.00;-21061.28;5054728;28;20500;-70
2021/08/31 05:09:15;;;;;;;3.47;1.73;;;;;;;14.04;100.00;-21063.34;5055938;28;20452;-70
2021/08/31 05:11:42;;;;;;;0.90;0.90;;;;;;;14.07;100.00;-21064.19;5055654;28;20466;-70
2021/08/31 05:14:09;;;;;;;0.70;0.70;;;;;;;14.12;100.00;-21065.56;5055413;28;20850;-71
2021/08/31 05:16:37;;;;;;;0.70;0.60;;;;;;;14.16;100.00;-21066.66;5055406;28;20413;-70
2021/08/31 05:19:04;;;;;;;0.80;0.70;;;;;;;14.20;100.00;-21067.91;5054710;28;20477;-70
2021/08/31 05:21:32;;;;;;;1.30;1.20;;;;;;;14.26;100.00;-21069.56;5054516;28;20427;-71
2021/08/31 05:23:59;;;;;;;0.70;0.70;;;;;;;14.38;100.00;-21072.72;5054217;28;20475;-70
2021/08/31 05:26:30;;;;;;;0.80;0.80;;;;;;;14.49;100.00;-21075.75;5067564;28;20447;-71
2021/08/31 05:28:57;;;;;;;0.67;0.60;;;;;;;14.54;100.00;-21076.84;5053330;28;20444;-71
2021/08/31 05:31:25;;;;;;;0.90;0.80;;;;;;;14.63;100.00;-21079.34;5055321;28;20521;-68
2021/08/31 05:33:52;;;;;;;0.80;0.80;;;;;;;14.61;100.00;-21078.78;5070839;28;20474;-70
2021/08/31 05:36:18;;;;;;;0.70;0.70;;;;;;;14.56;100.00;-21077.41;5054056;28;20452;-70
2021/08/31 05:38:47;;;;;;;0.70;0.70;;;;;;;14.53;100.00;-21076.56;5055374;28;20451;-70
2021/08/31 05:41:14;;;;;;;0.70;0.70;;;;;;;14.49;100.00;-21075.75;5053928;28;20467;-70
2021/08/31 05:43:41;;;;;;;0.70;0.70;;;;;;;14.47;100.00;-21075.19;5054539;28;20478;-70
2021/08/31 05:46:08;;;;;;;0.70;0.60;;;;;;;14.45;100.00;-21074.66;5055208;28;20427;-70
2021/08/31 05:48:34;;;;;;;0.70;0.60;;;;;;;14.42;100.00;-21073.81;5055182;28;20472;-69
2021/08/31 05:51:03;;;;;;;0.70;0.70;;;;;;;14.45;100.00;-21074.66;5055203;28;20431;-70
2021/08/31 05:53:30;;;;;;;0.70;0.70;;;;;;;14.55;100.00;-21077.28;5054451;28;20561;-71
2021/08/31 05:55:59;;;;;;;0.70;0.70;;;;;;;14.58;100.00;-21078.09;5054972;28;20478;-70
2021/08/31 05:58:26;;;;;;;1.53;1.43;;;;;;;14.59;100.00;-21078.22;5052985;28;20450;-70
2021/08/31 06:00:53;;;;;;;0.70;0.60;;;;;;;14.64;100.00;-21079.59;5054974;28;20405;-71
2021/08/31 06:03:21;;;;;;;1.27;1.17;;;;;;;14.65;100.00;-21080.00;5053443;28;21019;-70
2021/08/31 06:05:48;;;;;;;0.67;0.60;;;;;;;14.67;100.00;-21080.44;5053760;28;20644;-71
2021/08/31 06:08:15;;;;;;;0.70;0.70;;;;;;;14.68;100.00;-21080.84;5054205;28;20784;-70
2021/08/31 06:10:42;;;;;;;0.70;0.70;;;;;;;14.72;100.00;-21081.94;5054591;28;20434;-71
2021/08/31 06:13:10;;;;;;;0.70;0.70;;;;;;;14.80;100.00;-21084.00;5053169;28;20437;-71
2021/08/31 06:15:37;;;;;;;0.70;0.70;;;;;;;14.96;100.00;-21088.28;5053876;28;20567;-70
2021/08/31 06:18:05;;;;;;;0.70;0.70;;;;;;;15.23;100.00;-21095.69;5054457;28;20494;-71
2021/08/31 06:20:32;;;;;;;0.70;0.60;;;;;;;15.27;100.00;-21049.34;5054616;28;20462;-70
2021/08/31 06:22:58;;;;;;;0.70;0.60;;;;;;;15.40;100.00;-20876.13;5052590;28;20468;-71
2021/08/31 06:25:25;;;;;;;0.70;0.70;;;;;;;15.52;100.00;-20765.63;5054349;28;20938;-70
2021/08/31 06:27:52;;;;;;;0.80;0.80;;;;;;;15.67;100.00;-20582.97;5052688;28;20453;-71
2021/08/31 06:32:54;;;;;;;0.70;0.63;;;;;;;15.88;100.00;-21113.16;5091643;27;20562;-71
2021/08/31 06:35:21;;;;;;;1.90;1.80;;;;;;;16.03;100.00;-21117.00;5110176;28;20471;-70
2021/08/31 06:37:49;;;;;;;0.70;0.70;;;;;;;15.98;100.00;-21115.63;5106617;28;20475;-70
2021/08/31 06:40:16;;;;;;;0.73;0.73;;;;;;;16.07;100.00;-21118.09;5107493;28;20432;-71
2021/08/31 06:42:43;;;;;;;1.43;1.00;;;;;;;16.01;100.00;-21116.59;5110332;28;20524;-70
2021/08/31 06:45:10;;;;;;;0.70;0.70;;;;;;;16.16;100.00;-21120.72;5110661;28;20820;-71
2021/08/31 06:47:37;;;;;;;1.30;1.20;;;;;;;16.15;100.00;-21120.31;5089621;28;20906;-70
2021/08/31 06:50:13;;;;;;;1.40;1.30;;;;;;;16.17;100.00;-21121.00;5089041;28;20488;-70
2021/08/31 06:52:40;;;;;;;0.70;0.70;;;;;;;16.31;100.00;-21124.56;5087820;28;20571;-70
2021/08/31 06:55:08;;;;;;;0.70;0.70;;;;;;;16.30;100.00;-21124.44;5088029;28;20441;-71
2021/08/31 06:57:36;;;;;;;1.00;1.00;;;;;;;16.40;100.00;-21127.16;5088354;28;20939;-71
2021/08/31 07:00:04;;;;;;;1.57;1.47;;;;;;;16.28;100.00;-21123.75;5090279;28;20508;-70
2021/08/31 07:02:31;;;;;;;0.70;0.60;;;;;;;16.52;100.00;-21130.19;5088620;28;20818;-70
2021/08/31 07:05:02;;;;;;;0.70;0.60;;;;;;;16.34;100.00;-21125.53;5089968;28;20766;-71
2021/08/31 07:07:30;;;;;;;0.70;0.70;;;;;;;16.27;100.00;-21123.59;5088686;28;20425;-73
2021/08/31 07:09:57;;;;;;;0.97;0.97;;;;;;;16.32;100.00;-21124.97;5089670;28;20463;-71
2021/08/31 07:12:24;;;;;;;0.70;0.70;;;;;;;16.35;100.00;-21125.81;5088969;28;20453;-71
2021/08/31 07:14:52;;;;;;;0.80;0.67;;;;;;;16.32;100.00;-21124.97;5088325;28;20421;-71
2021/08/31 07:17:19;;;;;;;1.10;1.10;;;;;;;16.36;100.00;-21126.06;5089538;28;20411;-71
2021/08/31 07:19:47;;;;;;;2.50;2.30;;;;;;;16.42;100.00;-21127.72;5088192;28;20441;-71
2021/08/31 07:22:17;;;;;;;0.70;0.60;;;;;;;16.37;100.00;-21126.34;5089637;28;20479;-71
2021/08/31 07:24:45;;;;;;;0.70;0.70;;;;;;;16.47;100.00;-21128.81;5088097;28;21008;-71
2021/08/31 07:27:13;;;;;;;0.90;0.90;;;;;;;16.62;100.00;-21132.94;5088490;28;20525;-71
2021/08/31 07:29:40;;;;;;;0.70;0.70;;;;;;;16.46;100.00;-21128.69;5088121;28;20936;-71
2021/08/31 07:32:07;;;;;;;1.00;1.00;;;;;;;16.57;100.00;-20965.31;5086221;28;20478;-71
2021/08/31 07:34:35;;;;;;;1.30;1.20;;;;;;;16.72;100.00;-20683.59;5088262;28;20433;-70
2021/08/31 07:37:03;;;;;;;0.70;0.70;;;;;;;16.75;100.00;-20454.22;5089503;28;20432;-70
2021/08/31 07:39:31;;;;;;;1.20;1.10;;;;;;;16.69;100.00;-20149.09;5088802;28;20445;-71
2021/08/31 07:42:00;;;;;;;1.33;1.23;;;;;;;16.70;100.00;-19742.03;5088942;28;20492;-70
2021/08/31 07:44:26;;;;;;;0.70;0.70;;;;;;;16.84;100.00;-19193.84;5075340;28;20794;-71
2021/08/31 07:46:54;;;;;;;0.80;0.80;;;;;;;16.95;100.00;-18611.47;5074294;28;20803;-70
2021/08/31 07:49:21;;;;;;;0.70;0.70;;;;;;;16.73;100.00;-18219.31;5073414;28;20465;-71
2021/08/31 07:51:48;;;;;;;0.90;0.90;;;;;;;16.93;100.00;-17423.38;5082755;28;20973;-71
2021/08/31 07:54:15;;;;;;;0.70;0.70;;;;;;;16.95;100.00;-16701.88;5095626;28;20451;-71
2021/08/31 07:56:42;;;;;;;0.70;0.60;;;;;;;17.06;100.00;-15916.00;5095760;28;20429;-71
2021/08/31 07:59:13;;;;;;;0.73;0.73;;;;;;;17.14;100.00;-15228.00;5094280;28;20429;-71
2021/08/31 08:01:40;;;;;;;1.00;1.00;;;;;;;17.20;100.00;-14382.00;5093106;28;20849;-71
2021/08/31 08:04:07;;;;;;;1.37;1.27;;;;;;;17.52;100.00;-13379.66;5075477;28;20426;-70
2021/08/31 08:06:35;;;;;;;0.70;0.60;;;;;;;17.71;100.00;-12323.50;5074376;28;20393;-71
2021/08/31 08:09:02;;;;;;;0.70;0.70;;;;;;;17.59;100.00;-11648.94;5073941;28;20439;-72
2021/08/31 08:11:29;;;;;;;0.80;0.80;;;;;;;17.76;100.00;-10474.41;5074231;28;20955;-73
2021/08/31 08:13:56;;;;;;;0.90;0.90;;;;;;;17.96;100.00;-9230.38;5075311;28;20938;-72
2021/08/31 08:16:24;;;;;;;0.70;0.60;;;;;;;18.18;100.00;-8967.50;5073991;28;20410;-71
2021/08/31 08:18:52;;;;;;;0.70;0.63;;;;;;;18.29;100.00;-8800.38;5074772;28;20378;-71
2021/08/31 08:21:20;;;;;;;0.70;0.60;;;;;;;18.45;100.00;-8218.53;5075156;28;20760;-71
2021/08/31 08:23:47;;;;;;;0.70;0.60;;;;;;;18.22;100.00;-7934.59;5073648;28;20998;-71
2021/08/31 08:26:14;;;;;;;1.10;1.10;;;;;;;18.22;100.00;-7641.88;5073458;28;20421;-72
2021/08/31 08:28:41;;;;;;;0.70;0.70;;;;;;;18.09;100.00;-7468.09;5081848;28;20450;-71
2021/08/31 08:31:08;;;;;;;4.20;1.27;;;;;;;18.01;100.00;-7012.13;5072578;28;20784;-72
2021/08/31 08:33:37;;;;;;;0.70;0.70;;;;;;;18.20;100.00;-6259.25;5074685;28;20463;-72
2021/08/31 08:36:06;;;;;;;0.83;0.83;;;;;;;17.94;100.00;-6212.63;5085531;28;20419;-71
2021/08/31 08:38:33;;;;;;;0.70;0.70;;;;;;;17.78;100.00;-5957.63;5092940;28;20417;-72
2021/08/31 08:41:05;;;;;;;0.70;0.70;;;;;;;17.85;100.00;-5514.88;5094564;28;20454;-71
2021/08/31 08:43:32;;;;;;;1.23;1.13;;;;;;;17.80;100.00;-5316.22;5095017;28;20753;-71
2021/08/31 08:46:02;;;;;;;2.33;2.07;;;;;;;17.64;100.00;-5506.84;5094323;28;20930;-71
2021/08/31 08:48:32;;;;;;;0.83;0.83;;;;;;;17.50;100.00;-5539.63;5093090;28;20400;-72
2021/08/31 08:51:03;;;;;;;0.70;0.70;;;;;;;17.59;100.00;-5020.66;5091915;28;20393;-71
2021/08/31 08:53:32;;;;;;;1.40;1.23;;;;;;;17.60;100.00;-4867.97;5074195;28;20458;-70
2021/08/31 08:56:01;;;;;;;0.70;0.67;;;;;;;17.71;100.00;-4995.34;5073567;28;20386;-71
2021/08/31 08:58:28;;;;;;;1.67;1.23;;;;;;;17.55;100.00;-5682.22;5074252;28;20427;-71
2021/08/31 09:01:16;;;;;;;0.87;0.80;;;;;;;17.48;100.00;-6694.44;5074391;28;20885;-71
2021/08/31 09:03:53;;;;;;;0.70;0.60;;;;;;;17.43;100.00;-7375.75;5073312;28;20393;-71
2021/08/31 09:06:22;;;;;;;1.73;1.30;;;;;;;17.32;100.00;-7568.41;5073350;28;20378;-72
2021/08/31 09:08:57;;;;;;;1.47;1.37;;;;;;;17.48;100.00;-8311.59;5073547;28;20412;-72
2021/08/31 09:11:26;;;;;;;1.73;1.63;;;;;;;17.35;100.00;-9858.25;5072418;28;20830;-71
2021/08/31 09:14:16;;;;;;;1.63;1.00;;;;;;;17.46;100.00;-10268.19;5074023;28;20390;-72
2021/08/31 09:16:45;;;;;;;14.17;2.23;;;;;;;17.47;100.00;-12246.72;5072573;28;20421;-72
2021/08/31 09:19:12;;;;;;;0.70;0.70;;;;;;;17.32;100.00;-14363.75;5073995;28;20942;-71
2021/08/31 09:21:41;;;;;;;0.70;0.70;;;;;;;17.35;100.00;-15462.44;5072800;28;20457;-71
2021/08/31 09:24:11;;;;;;;0.90;0.90;;;;;;;17.27;100.00;-17460.97;5073015;28;20851;-71
2021/08/31 09:26:40;;;;;;;1.17;1.07;;;;;;;17.07;100.00;-17768.47;5072978;28;20436;-71
2021/08/31 09:29:18;;;;;;;1.57;1.43;;;;;;;17.12;100.00;-18200.06;5073877;28;20453;-71
2021/08/31 09:31:54;;;;;;;0.70;0.70;;;;;;;17.14;100.00;-19218.63;5073553;28;20477;-71
2021/08/31 09:34:32;;;;;;;0.70;0.60;;;;;;;17.13;100.00;-19620.97;5072213;28;20959;-72
2021/08/31 09:37:36;;;;;;;1.00;0.90;;;;;;;17.03;100.00;-19886.91;5073288;28;20662;-72
2021/08/31 09:40:07;;;;;;;0.70;0.70;;;;;;;17.13;100.00;-19413.34;5073109;28;20415;-72
2021/08/31 09:42:49;;;;;;;0.80;0.80;;;;;;;17.23;100.00;-19316.94;5071491;28;20938;-72
2021/08/31 09:45:23;;;;;;;0.70;0.60;;;;;;;17.20;100.00;-19652.97;5072727;28;20416;-72
2021/08/31 09:47:51;;;;;;;1.27;1.17;;;;;;;17.18;100.00;-20146.31;5073331;28;20889;-71
2021/08/31 09:50:29;;;;;;;1.33;1.23;;;;;;;17.22;100.00;-20964.88;5071930;28;20449;-73
2021/08/31 09:53:03;;;;;;;0.73;0.73;;;;;;;17.30;100.00;-21151.19;5071735;28;20556;-72
2021/08/31 09:55:30;;;;;;;0.70;0.70;;;;;;;17.09;100.00;-21145.56;5071937;28;20782;-71
2021/08/31 09:58:09;;;;;;;0.90;0.80;;;;;;;17.18;100.00;-21148.03;5072361;28;20421;-73
2021/08/31 10:00:37;;;;;;;1.30;1.20;;;;;;;17.38;100.00;-21153.53;5072433;28;20514;-71
2021/08/31 11:09:20;;;;;;;1.10;0.90;;;;;;;25.23;100.00;-21363.16;6166965;22;1375589;-70
2021/08/31 11:12:12;;;;;;;1.27;1.07;;;;;;;26.04;100.00;-21384.44;6251247;23;20231;-71
2021/08/31 11:14:53;;;;;;;1.27;0.60;;;;;;;25.19;100.00;-21362.06;6252333;23;20793;-71
2021/08/31 11:17:32;;;;;;;1.90;1.53;;;;;;;25.21;100.00;-21362.63;6252483;23;20379;-71
2021/08/31 11:20:14;;;;;;;0.80;0.70;;;;;;;25.19;100.00;-21361.94;6251049;23;20386;-72
2021/08/31 11:22:44;;;;;;;0.70;0.50;;;;;;;25.81;100.00;-21378.34;6250923;23;20403;-70
2021/08/31 11:25:12;;;;;;;0.93;0.87;;;;;;;26.39;100.00;-21393.91;6225302;23;20434;-71
2021/08/31 11:27:51;;;;;;;1.90;1.13;;;;;;;24.25;100.00;-21337.09;6253892;23;20855;-71
2021/08/31 11:30:19;;;;;;;1.43;1.33;;;;;;;24.35;100.00;-21339.81;6252931;23;20881;-69
2021/08/31 11:32:46;;;;;;;4.73;1.10;;;;;;;24.62;100.00;-21346.75;6254216;22;20415;-69
2021/08/31 11:35:13;;;;;;;1.40;1.30;;;;;;;24.52;100.00;-21344.31;6252735;23;20405;-70
2021/08/31 11:37:50;;;;;;;1.20;0.90;;;;;;;24.68;100.00;-21348.50;6254346;22;20445;-71
2021/08/31 11:40:27;;;;;;;0.80;0.60;;;;;;;25.46;100.00;-21369.25;6254056;23;20367;-70
2021/08/31 11:43:15;;;;;;;3.70;1.10;;;;;;;25.27;100.00;-21364.09;6254557;23;20453;-70
2021/08/31 11:45:42;;;;;;;0.80;0.70;;;;;;;25.51;100.00;-21370.59;6253947;23;20465;-71
2021/08/31 11:48:09;;;;;;;0.70;0.50;;;;;;;26.22;100.00;-21389.31;6254534;22;20784;-70
2021/08/31 11:50:37;;;;;;;0.80;0.80;;;;;;;26.31;100.00;-21391.75;6252563;23;20372;-70
2021/08/31 11:53:14;;;;;;;0.80;0.60;;;;;;;26.60;100.00;-21399.31;6254173;23;20404;-72
2021/08/31 11:55:42;;;;;;;2.73;1.00;;;;;;;26.47;100.00;-21395.94;6254267;22;20367;-71
2021/08/31 11:58:09;;;;;;;0.80;0.67;;;;;;;26.47;100.00;-21396.09;6254254;22;20796;-71
2021/08/31 12:00:43;;;;;;;0.80;0.80;;;;;;;26.42;100.00;-21394.59;6227735;23;20859;-70
2021/08/31 12:03:22;;;;;;;0.97;0.87;;;;;;;24.80;100.00;-21351.75;6254318;22;20762;-71
2021/08/31 12:05:55;;;;;;;0.70;0.60;;;;;;;24.64;100.00;-21347.28;6251681;23;20419;-70
2021/08/31 12:08:24;;;;;;;0.93;0.93;;;;;;;24.78;100.00;-21351.06;6245211;23;20787;-71
2021/08/31 12:10:54;;;;;;;0.80;0.70;;;;;;;25.12;100.00;-21360.19;6247694;22;20672;-70
2021/08/31 12:13:23;;;;;;;1.67;1.20;;;;;;;25.30;100.00;-21365.06;6247747;23;20365;-69
2021/08/31 12:15:53;;;;;;;0.77;0.63;;;;;;;25.43;100.00;-21368.44;6247463;22;20431;-69
2021/08/31 12:18:27;;;;;;;0.80;0.70;;;;;;;25.91;100.00;-21381.03;6247328;23;20490;-69
2021/08/31 12:21:14;;;;;;;0.80;0.70;;;;;;;26.26;100.00;-21390.38;6247445;22;20379;-70
2021/08/31 12:23:42;;;;;;;0.80;0.80;;;;;;;25.69;100.00;-21375.34;6244172;23;20408;-69
2021/08/31 12:26:26;;;;;;;1.13;1.03;;;;;;;25.21;100.00;-21362.47;6245154;22;20466;-69
2021/08/31 12:28:59;;;;;;;0.97;0.97;;;;;;;25.42;100.00;-21368.16;6246918;22;20372;-69
2021/08/31 12:31:27;;;;;;;1.53;1.23;;;;;;;26.21;100.00;-21389.03;6246997;22;20380;-70
2021/08/31 12:33:55;;;;;;;0.90;0.77;;;;;;;26.64;100.00;-21400.53;6246816;23;20395;-69
2021/08/31 12:36:30;;;;;;;1.13;1.03;;;;;;;26.66;100.00;-21400.94;6246937;23;20376;-70